x

Buoy F01 - West Penobscot Bay (44033) Wave Buoy

8:04 - Thu 18th Dec 2014 All times are EST. -5 hours from GMT.

  • Sig Wave height 1.3ft
  • Peak Period 5s
  • Wind
    13mph, 16mph gusts
  • Sea Temp 43°f
  • Luft Temp 35°f
  • Sea Pressure 1005.9mb
  • Buoy F01 - West Penobscot Bay
  • Buoy F01 - West Penobscot Bay

More Historic Weather Station data

Upgrade to MSW Pro to gain access to the past 30 days of data for over 8000 Wavebouys and Weather Stations around the globe.

Join Pro

Comparision Forecast

View Surf forecast
   
Do 12/18 8:04 1.3ft 5s 13 16 mph 1005.9mb 43f 35f
7:04 2ft 3s 16 20 mph 1005.8mb 43f 36f
6:04 2.5ft 3s 25 34 mph 1005.3mb 43f 37f
5:04 2ft 3s 27 34 mph 1004.5mb 43f 37f
4:04 2ft 8s 16 22 mph 1003.9mb 42f 37f
3:04 1.3ft 5s 16 18 mph 1003.4mb 42f 37f
2:04 1.3ft 2s 18 22 mph 1003mb 42f 37f
1:04 1.3ft 2s 18 22 mph 1002.6mb 42f 37f
12:04 1.6ft 3s 20 25 mph 1002.6mb 42f 37f
11:04 1.3ft 2s 20 27 mph 1002.5mb 42f 37f
10:04 1ft  -  18 22 mph 1002.5mb 41f 36f
9:04 0.7ft  -  11 13 mph 1002.1mb 41f 35f
8:04 0.7ft  -  11 13 mph 1001.6mb 41f 35f
7:04 1.6ft 8s 13 16 mph 1001.2mb 41f 35f
6:04 1.6ft 8s 9 11 mph 1001.2mb 42f 35f
5:04 1.6ft 8s 11 13 mph 1001.1mb 42f 36f
4:04 2.5ft 8s 18 22 mph 1001.1mb 42f 37f
3:04 1.6ft 6s 18 20 mph 1001.1mb 42f 37f
2:04 2ft 8s 13 18 mph 1001.1mb 42f 36f
1:04 2.5ft 8s 13 18 mph 1001.1mb 42f 36f
12:04 3.5ft 8s 18 20 mph 1001mb 42f 37f
Mi 12/17 11:04 3.5ft 8s 16 20 mph 1000.9mb 42f 38f
10:04 4.5ft 8s 22 27 mph 1001.2mb 45f 38f
9:04 4.5ft 8s 25 31 mph 1001.4mb 45f 38f
8:04 5ft 8s 27 31 mph 1002mb 44f 39f
7:04  -   -  25 29 mph 1002mb - 40f
6:04 5ft 8s 22 27 mph 1002mb 43f 41f
5:04 5ft 8s 20 22 mph 1002.2mb 43f 43f
4:04 5ft 8s 18 22 mph 1002.3mb 45f 44f
3:04 5.5ft 8s 18 25 mph 1002.7mb 45f 44f
2:04 6ft 8s 22 27 mph 1002.8mb 45f 45f
1:04 6ft 6s  -  mph - 45f -
12:04 5ft 6s 22 27 mph 1004.6mb 45f 44f
11:04 4.5ft 6s 25 29 mph 1006.1mb 45f 45f
10:04 4.5ft 6s 22 29 mph 1007.5mb 45f 45f
9:04 3.5ft 5s 22 27 mph 1008.8mb 45f 45f
8:04 2.5ft 5s 20 25 mph 1009.4mb 45f 45f
7:04 2.5ft 4s 20 25 mph 1010.2mb 44f 45f
6:04 2ft 5s 16 18 mph 1010.8mb 42f 46f
5:04 1.3ft 4s 11 13 mph 1011.4mb 42f 45f
4:04 1.6ft 5s 9 11 mph 1012.1mb 41f 43f
3:04 1.3ft 5s 9 11 mph 1013.3mb 41f 41f
2:04 1ft 4s 7 9 mph 1014.2mb 41f 41f
1:04 1.3ft 11s 7 9 mph 1014.6mb 41f 40f
12:04 1.3ft 4s 4
mph
1015.2mb 41f 40f
Di 12/16 11:04 1.3ft 11s 4
mph
1015.9mb 42f 40f
10:04 1.3ft 11s  -  2 mph 1016mb 42f 40f
9:04 1.3ft 11s 2
mph
1016.2mb 41f 40f
8:04 1.3ft 11s 2 4 mph 1016.5mb 42f 40f
7:04 1.3ft 11s 11 13 mph 1017mb 44f 42f
6:04 1ft 3s 7 9 mph 1017.4mb 42f 43f
5:04 1ft 3s 7 9 mph 1017.6mb 42f 42f
4:04 1.3ft 3s 13 16 mph 1017.7mb 42f 41f
3:04 1.3ft 3s 16 18 mph 1018.1mb 42f 40f
2:04 1ft 3s 11 16 mph 1018.4mb 42f 39f
1:04  -   -  9 11 mph 1019.2mb 42f 37f
12:04 1ft 8s 7 9 mph 1019.9mb 42f 37f
11:04 1ft 11s 4 9 mph 1020.6mb 41f 37f
10:04 1ft 11s 4 7 mph 1021.6mb 42f 37f
9:04 1ft 8s 4 7 mph 1021.6mb 42f 36f
8:04 1ft 11s 7 9 mph 1021.3mb 41f 35f
7:04 1ft 11s 7 9 mph 1021.1mb 41f 34f
6:04 0.7ft  -  4 7 mph 1021mb 41f 33f
5:04 1ft 11s 7 9 mph 1020.8mb 41f 33f
4:04 0.7ft  -  7
mph
1020.8mb 41f 33f
3:04 0.3ft  -  9
mph
1021.2mb 40f 32f
2:04 0.7ft  -  4
mph
1021.3mb 41f 33f
1:04 0.7ft  -  4 9 mph 1020.9mb 41f 33f
12:04 0.7ft  -  2 4 mph 1021.1mb 41f 32f
Mo 12/15 11:04 0.7ft  -  4 7 mph 1021.1mb 41f 32f
10:04 0.7ft  -  7 9 mph 1020.8mb 41f 33f
9:04 1ft 11s 7 11 mph 1020.7mb 41f 33f
8:04 0.7ft  -  9 13 mph 1020.5mb 43f 33f
7:04 1ft 2s 11 13 mph 1019.9mb 43f 33f
6:04 1ft 2s 11 16 mph 1019mb 44f 33f
5:04 1.3ft 3s 9 13 mph 1018.6mb 42f 33f
4:04 1ft 3s 13 18 mph 1017.8mb 42f 33f
3:04 1.3ft 3s 13 18 mph 1017.5mb 42f 33f
2:04 1.6ft 3s 13 18 mph 1016.8mb 43f 33f
1:04 1.6ft 3s 13 16 mph 1016.4mb 44f 33f
12:04 1.6ft 3s 18 20 mph 1016.3mb 44f 34f
11:04 2ft 3s 18 22 mph 1016.1mb 44f 33f
10:04 1.6ft 3s 18 22 mph 1015.9mb 44f 34f
9:04 1.3ft 3s 18 20 mph 1014.9mb 44f 34f
8:04 1.3ft 3s 16 20 mph 1014mb 44f 34f
7:04 1.6ft 3s 13 18 mph 1013.5mb 43f 35f
6:04 1.3ft 2s 13 18 mph 1012.6mb 43f 35f
5:04 1ft 2s 13 18 mph 1011.7mb 42f 35f
4:04 1ft 3s 18 20 mph 1010.8mb 42f 36f
3:04 1ft 2s 18 22 mph 1010.5mb 42f 36f